Time;durP1;ratioP1;P1;durP2;ratioP2;P2;SDS_P1;SDS_P2;PMS_P1;PMS_P2;Temp;Humidity;BMP_temperature;BMP_pressure;BME280_temperature;BME280_humidity;BME280_pressure;Samples;Min_cycle;Max_cycle;Signal;HPM_P1;HPM_P2
2022/07/15 00:00:22;;;;;;;5.90;3.40;;;;;;;23.65;41.21;99020.66;7001706;28;20226;-78
2022/07/15 00:03:44;;;;;;;3.57;2.83;;;;;;;23.95;41.27;99044.47;7012839;28;20240;-80
2022/07/15 00:07:06;;;;;;;4.83;3.30;;;;;;;23.58;42.37;99033.91;7032344;28;20207;-79
2022/07/15 00:10:28;;;;;;;5.13;3.60;;;;;;;22.87;44.65;99057.25;7028487;28;20207;-79
2022/07/15 00:13:51;;;;;;;4.10;3.67;;;;;;;23.21;43.53;99043.72;7028837;28;20239;-79
2022/07/15 00:17:13;;;;;;;5.73;3.87;;;;;;;22.61;42.86;98975.91;7027986;28;20196;-79
2022/07/15 00:20:34;;;;;;;3.70;3.30;;;;;;;23.33;41.94;99041.47;7027581;28;20207;-79
2022/07/15 00:23:56;;;;;;;6.43;3.10;;;;;;;22.88;43.14;99033.31;7028020;28;20409;-78
2022/07/15 00:27:17;;;;;;;4.37;3.10;;;;;;;22.94;42.60;99032.19;7031234;28;20350;-80
2022/07/15 00:30:42;;;;;;;4.93;3.33;;;;;;;22.05;44.69;99053.13;7033583;28;20229;-78
2022/07/15 00:34:03;;;;;;;4.93;2.97;;;;;;;22.88;41.75;99053.41;7032923;28;20308;-79
2022/07/15 00:37:25;;;;;;;3.50;2.90;;;;;;;23.05;41.39;99047.56;7032107;28;20215;-80
2022/07/15 00:40:47;;;;;;;3.90;3.13;;;;;;;22.46;42.90;99052.91;7032607;28;20246;-79
2022/07/15 00:44:09;;;;;;;6.47;3.17;;;;;;;22.52;43.73;99043.56;7032573;28;20238;-79
2022/07/15 00:47:32;;;;;;;6.30;3.13;;;;;;;22.56;43.40;99027.34;7032349;28;20215;-79
2022/07/15 00:50:54;;;;;;;4.93;3.13;;;;;;;22.71;43.48;99044.63;7032457;28;20222;-79
2022/07/15 00:54:16;;;;;;;5.80;3.60;;;;;;;22.68;43.36;99056.19;7031867;28;20232;-79
2022/07/15 00:57:39;;;;;;;3.83;3.50;;;;;;;22.27;43.92;99051.78;7031590;28;20255;-79
2022/07/15 01:01:01;;;;;;;4.50;3.00;;;;;;;22.41;43.26;99044.63;7032371;28;20744;-79
2022/07/15 01:04:27;;;;;;;5.30;3.07;;;;;;;22.43;43.04;99052.63;7031129;28;20888;-79
2022/07/15 01:07:50;;;;;;;4.73;2.83;;;;;;;22.31;42.84;99057.56;7031162;28;20302;-79
2022/07/15 01:11:13;;;;;;;4.47;2.97;;;;;;;22.08;43.15;99047.09;7031480;28;20204;-79
2022/07/15 01:14:35;;;;;;;4.13;3.07;;;;;;;22.44;42.86;99051.53;7040513;28;20223;-79
2022/07/15 01:17:57;;;;;;;5.13;2.73;;;;;;;21.96;43.10;99054.75;7046261;28;20219;-79
2022/07/15 01:21:20;;;;;;;5.17;2.90;;;;;;;22.15;42.93;99059.47;7031755;28;20692;-79
2022/07/15 01:24:41;;;;;;;5.23;3.23;;;;;;;22.71;41.74;99065.81;7030666;28;20298;-79
2022/07/15 01:28:03;;;;;;;3.67;3.10;;;;;;;22.30;43.12;99073.19;7031417;28;20289;-79
2022/07/15 01:31:25;;;;;;;5.30;3.63;;;;;;;22.12;44.21;99068.25;7032391;28;20248;-79
2022/07/15 01:34:48;;;;;;;3.87;3.30;;;;;;;21.70;45.71;99069.50;7031374;28;20267;-79
2022/07/15 01:38:11;;;;;;;4.60;3.30;;;;;;;21.94;45.16;99068.75;7030176;28;20214;-79
2022/07/15 01:41:32;;;;;;;5.83;3.10;;;;;;;21.90;45.01;99058.59;7031003;28;20296;-79
2022/07/15 01:44:54;;;;;;;4.40;3.47;;;;;;;21.81;45.24;99066.53;7030712;28;20258;-79
2022/07/15 01:51:51;;;;;;;4.53;2.77;;;;;;;22.05;43.17;99073.19;7031276;28;20209;-79
2022/07/15 01:55:14;;;;;;;4.83;3.00;;;;;;;21.76;43.57;99073.91;7031990;28;20599;-79
2022/07/15 01:58:35;;;;;;;4.17;3.20;;;;;;;21.43;45.01;99060.63;7037228;28;20189;-79
2022/07/15 02:01:58;;;;;;;4.07;3.03;;;;;;;21.38;45.15;99075.16;7050526;28;20285;-79
2022/07/15 02:05:19;;;;;;;3.67;3.33;;;;;;;21.17;46.15;99076.13;7034317;28;20276;-79
2022/07/15 02:08:41;;;;;;;3.63;3.27;;;;;;;21.04;46.22;99070.31;7037835;28;20217;-78
2022/07/15 02:12:06;;;;;;;4.53;2.80;;;;;;;21.33;45.20;99066.91;7030933;28;20239;-78
2022/07/15 02:15:27;;;;;;;4.17;2.70;;;;;;;21.51;43.89;99071.91;7031227;28;20634;-79
2022/07/15 02:18:49;;;;;;;3.33;3.03;;;;;;;21.31;43.94;99069.06;7030275;28;20228;-79
2022/07/15 02:22:10;;;;;;;3.87;3.20;;;;;;;21.34;44.17;99070.44;7031529;28;20707;-79
2022/07/15 02:25:34;;;;;;;3.03;2.73;;;;;;;21.34;44.04;99057.56;7031104;28;20227;-79
2022/07/15 02:28:56;;;;;;;4.97;3.30;;;;;;;21.01;44.45;99079.06;7030727;28;20287;-79
2022/07/15 02:32:18;;;;;;;3.47;2.83;;;;;;;21.02;44.51;99067.81;7030923;28;20272;-79
2022/07/15 02:35:41;;;;;;;4.10;2.87;;;;;;;21.22;43.59;99069.84;7030331;28;20329;-80
2022/07/15 02:39:03;;;;;;;4.50;3.20;;;;;;;20.23;45.85;99067.22;7032119;28;20213;-80
2022/07/15 02:42:25;;;;;;;4.70;3.00;;;;;;;20.38;45.19;99064.59;7031941;28;20229;-79
2022/07/15 02:45:48;;;;;;;3.97;2.90;;;;;;;20.55;44.46;99051.59;7032056;28;20236;-79
2022/07/15 02:49:11;;;;;;;4.57;2.70;;;;;;;20.71;44.49;99072.53;7031338;28;20251;-80
2022/07/15 02:52:32;;;;;;;2.93;2.70;;;;;;;20.60;44.52;99074.38;7031658;28;20199;-79
2022/07/15 02:55:54;;;;;;;3.43;3.07;;;;;;;20.54;44.81;99078.16;7032342;28;20361;-79
2022/07/15 02:59:15;;;;;;;5.13;2.87;;;;;;;20.91;43.81;99079.00;7031295;28;20210;-79
2022/07/15 03:02:39;;;;;;;4.33;2.90;;;;;;;20.76;44.11;99081.59;7030371;28;20257;-79
2022/07/15 03:06:01;;;;;;;6.20;3.00;;;;;;;20.61;44.97;99077.94;7033770;28;20690;-80
2022/07/15 03:09:22;;;;;;;4.07;2.87;;;;;;;20.52;45.13;99088.53;7033268;28;20297;-79
2022/07/15 03:12:44;;;;;;;2.77;2.50;;;;;;;20.44;45.29;99090.94;7033921;28;20681;-80
2022/07/15 03:16:05;;;;;;;3.07;2.30;;;;;;;20.52;44.04;99090.47;7033987;28;20227;-80
2022/07/15 03:19:28;;;;;;;3.53;2.80;;;;;;;20.47;44.43;99095.91;7034057;28;20267;-80
2022/07/15 03:22:50;;;;;;;4.53;2.90;;;;;;;20.33;44.64;99039.94;7037922;28;20226;-80
2022/07/15 03:26:12;;;;;;;3.70;2.70;;;;;;;19.62;47.27;99092.25;7034761;28;20248;-80
2022/07/15 03:29:33;;;;;;;5.60;3.13;;;;;;;19.47;47.63;99097.56;7034941;28;20256;-80
2022/07/15 03:32:55;;;;;;;2.97;2.70;;;;;;;19.63;46.30;99085.75;7035607;28;20246;-80
2022/07/15 03:36:21;;;;;;;5.30;3.20;;;;;;;19.29;48.32;99097.88;7041278;28;20193;-79
2022/07/15 03:39:42;;;;;;;5.50;3.40;;;;;;;19.75;46.90;99103.66;7037949;28;20197;-80
2022/07/15 03:43:04;;;;;;;3.30;2.60;;;;;;;19.74;46.68;99096.53;7044460;28;20321;-80
2022/07/15 03:46:25;;;;;;;3.40;3.07;;;;;;;19.51;47.50;99104.19;7044504;28;20207;-80
2022/07/15 03:49:47;;;;;;;2.90;2.60;;;;;;;19.65;46.05;99098.09;7033670;28;20202;-80
2022/07/15 03:53:10;;;;;;;3.47;2.80;;;;;;;19.23;47.94;99112.56;7030897;28;20201;-80
2022/07/15 03:56:32;;;;;;;5.83;2.67;;;;;;;19.35;46.95;99062.13;7030484;28;20204;-80
2022/07/15 03:59:54;;;;;;;6.23;2.93;;;;;;;19.86;46.19;99107.34;7029673;28;20540;-80
2022/07/15 04:03:16;;;;;;;3.20;2.47;;;;;;;19.77;46.88;99109.72;7043836;28;20252;-79
2022/07/15 04:06:37;;;;;;;3.87;2.80;;;;;;;19.56;47.51;99107.81;7044099;28;20220;-79
2022/07/15 04:10:00;;;;;;;3.37;2.87;;;;;;;19.75;46.49;99098.19;7026089;28;20221;-79
2022/07/15 04:13:22;;;;;;;4.07;2.90;;;;;;;19.93;46.14;99108.78;7039908;28;20229;-80
2022/07/15 04:16:43;;;;;;;2.83;2.47;;;;;;;20.01;45.44;99080.13;7026132;28;20229;-79
2022/07/15 04:20:06;;;;;;;3.73;2.90;;;;;;;19.79;46.94;99106.69;7011555;28;20193;-79
2022/07/15 04:23:28;;;;;;;4.97;3.23;;;;;;;19.06;48.36;99098.09;7026410;28;20316;-79
2022/07/15 04:26:51;;;;;;;7.50;2.70;;;;;;;18.92;48.09;99062.09;7024171;28;20786;-79
2022/07/15 04:30:13;;;;;;;4.43;2.80;;;;;;;19.28;48.07;99110.72;7035403;28;20205;-78
2022/07/15 04:33:34;;;;;;;4.10;3.40;;;;;;;19.58;47.55;99121.22;7036411;28;20760;-80
2022/07/15 04:36:56;;;;;;;7.23;3.10;;;;;;;19.89;46.69;99117.75;7015489;28;20278;-80
2022/07/15 04:40:17;;;;;;;3.30;2.77;;;;;;;20.21;45.25;99092.13;7013617;28;20220;-79
2022/07/15 04:43:40;;;;;;;6.27;3.03;;;;;;;19.98;46.06;99105.28;7015408;28;20552;-79
2022/07/15 04:47:02;;;;;;;3.93;2.50;;;;;;;20.01;46.28;99111.06;7015645;28;20324;-79
2022/07/15 04:54:03;;;;;;;3.10;2.90;;;;;;;20.12;45.98;99120.22;7025536;28;20226;-79
2022/07/15 04:57:25;;;;;;;3.10;2.80;;;;;;;20.25;45.35;99106.94;7034270;28;20209;-78
2022/07/15 05:00:47;;;;;;;3.43;2.60;;;;;;;20.88;44.66;99123.38;7033786;28;20197;-79
2022/07/15 05:04:09;;;;;;;5.43;2.80;;;;;;;21.12;44.38;99110.94;7033972;28;20233;-78
2022/07/15 05:07:31;;;;;;;4.47;2.60;;;;;;;22.08;41.36;99097.34;7035887;28;20194;-79
2022/07/15 05:10:52;;;;;;;6.87;2.70;;;;;;;21.20;43.69;99111.25;7011052;28;20288;-79
2022/07/15 05:14:14;;;;;;;4.63;2.70;;;;;;;21.35;43.70;99097.63;7006354;28;20223;-83
2022/07/15 05:17:37;;;;;;;3.03;2.60;;;;;;;21.52;42.94;99070.81;7020658;28;20213;-80
2022/07/15 05:20:58;;;;;;;4.73;2.30;;;;;;;21.80;43.09;99106.06;7036170;28;20231;-80
2022/07/15 05:24:20;;;;;;;3.40;2.53;;;;;;;22.46;41.48;99121.59;7035241;28;20259;-79
2022/07/15 05:27:41;;;;;;;3.73;2.60;;;;;;;22.94;40.20;99117.44;7035051;28;20297;-80
2022/07/15 05:31:03;;;;;;;2.60;2.40;;;;;;;22.60;40.37;99110.91;7036064;28;20224;-79
2022/07/15 05:34:26;;;;;;;4.57;2.73;;;;;;;22.42;40.95;99125.16;7035613;28;20315;-79
2022/07/15 05:37:48;;;;;;;4.83;2.80;;;;;;;22.40;41.56;99125.41;7042188;28;20208;-79
2022/07/15 05:41:11;;;;;;;4.37;2.47;;;;;;;22.80;41.27;99125.47;7026331;28;20353;-79
2022/07/15 05:44:33;;;;;;;4.00;2.30;;;;;;;23.64;39.02;99125.56;7021189;28;20271;-79
2022/07/15 05:47:54;;;;;;;3.27;2.60;;;;;;;24.23;37.91;99127.22;7016259;28;20766;-79
2022/07/15 05:51:17;;;;;;;4.07;2.40;;;;;;;25.56;35.42;99114.47;7022121;28;20287;-79
2022/07/15 05:54:39;;;;;;;4.13;2.50;;;;;;;24.71;37.88;99104.28;7035884;28;20227;-79
2022/07/15 05:58:00;;;;;;;3.83;2.60;;;;;;;24.94;36.71;99086.13;7037714;28;20205;-79
2022/07/15 06:01:23;;;;;;;7.83;3.03;;;;;;;24.24;37.34;99089.47;7037741;28;20207;-79
2022/07/15 06:04:45;;;;;;;3.13;2.40;;;;;;;23.76;38.55;99126.06;7033866;28;20228;-79
2022/07/15 06:08:08;;;;;;;3.83;2.10;;;;;;;23.99;38.26;99140.03;7027112;28;20178;-78
2022/07/15 06:11:29;;;;;;;7.27;2.80;;;;;;;24.88;37.12;99098.31;7033447;28;20238;-78
2022/07/15 06:14:51;;;;;;;5.10;3.07;;;;;;;25.31;36.30;99139.56;7047796;28;20228;-80
2022/07/15 06:18:13;;;;;;;4.73;2.80;;;;;;;25.55;35.28;99118.31;7039795;28;20662;-80
2022/07/15 06:21:34;;;;;;;6.17;2.87;;;;;;;26.16;34.95;99126.69;7038751;28;20565;-79
2022/07/15 06:24:57;;;;;;;6.47;2.53;;;;;;;26.75;33.83;99121.34;7038457;28;20264;-80
2022/07/15 06:28:19;;;;;;;3.03;2.00;;;;;;;27.72;32.38;99125.66;7038051;28;20211;-79
2022/07/15 06:31:40;;;;;;;3.57;2.50;;;;;;;27.91;30.54;99118.91;7037448;28;20203;-79
2022/07/15 06:35:02;;;;;;;5.00;2.53;;;;;;;28.15;31.81;99119.50;7036380;28;20233;-80
2022/07/15 06:38:24;;;;;;;3.23;2.33;;;;;;;26.85;32.38;99099.88;7035505;28;20764;-80
2022/07/15 06:41:48;;;;;;;2.93;2.33;;;;;;;26.95;32.74;99118.25;7036432;28;20201;-80
2022/07/15 06:45:10;;;;;;;5.47;2.60;;;;;;;26.82;33.04;99117.09;7035392;28;20229;-80
2022/07/15 06:48:32;;;;;;;3.13;2.63;;;;;;;26.61;32.33;99077.03;7034988;28;20226;-80
2022/07/15 06:51:53;;;;;;;3.50;2.30;;;;;;;28.26;29.44;99108.97;7035485;28;20201;-80
2022/07/15 06:55:15;;;;;;;4.43;2.00;;;;;;;28.68;28.61;99101.03;7036178;28;20221;-79
2022/07/15 06:58:38;;;;;;;3.67;2.00;;;;;;;28.09;30.42;99101.31;7035877;28;20205;-80
2022/07/15 07:02:00;;;;;;;5.50;2.10;;;;;;;28.17;27.90;99092.25;7038988;28;20570;-80
2022/07/15 07:05:22;;;;;;;6.20;2.07;;;;;;;26.84;29.22;99114.81;7037355;28;20239;-79
2022/07/15 07:08:46;;;;;;;2.97;1.87;;;;;;;27.63;28.47;99119.19;7023120;28;20245;-79
2022/07/15 07:12:08;;;;;;;4.87;2.17;;;;;;;27.89;27.69;99112.84;7039185;28;20206;-80
2022/07/15 07:15:30;;;;;;;3.03;1.80;;;;;;;27.53;28.21;99086.97;7040407;28;20235;-81
2022/07/15 07:18:52;;;;;;;6.00;1.90;;;;;;;27.47;28.13;99093.75;7039563;28;20202;-80
2022/07/15 07:22:14;;;;;;;5.17;2.10;;;;;;;27.39;27.30;99111.09;7040110;28;20700;-80
2022/07/15 07:25:35;;;;;;;5.50;2.07;;;;;;;28.00;27.15;99105.13;7033754;28;20237;-79
2022/07/15 07:28:57;;;;;;;2.97;1.90;;;;;;;28.00;25.68;99099.56;7011011;28;20208;-80
2022/07/15 07:32:25;;;;;;;3.30;1.73;;;;;;;27.85;26.70;99028.66;7011708;28;20202;-80
2022/07/15 07:35:47;;;;;;;3.60;2.03;;;;;;;26.80;26.84;99118.50;7012902;28;20314;-80
2022/07/15 07:39:09;;;;;;;3.60;2.10;;;;;;;28.57;25.69;99071.06;7015637;28;20211;-80
2022/07/15 07:42:30;;;;;;;4.60;2.30;;;;;;;28.71;23.74;99102.38;7015007;28;20295;-80
2022/07/15 07:45:52;;;;;;;2.17;1.80;;;;;;;27.87;23.73;99109.56;7015920;28;20231;-80
2022/07/15 07:49:15;;;;;;;3.30;2.40;;;;;;;28.60;24.06;99096.22;7014730;28;20206;-80
2022/07/15 07:52:37;;;;;;;2.43;2.17;;;;;;;27.03;24.00;99062.19;7029466;28;20605;-79
2022/07/15 07:55:59;;;;;;;3.63;1.80;;;;;;;27.12;25.12;99072.25;7043306;28;20234;-80
2022/07/15 07:59:21;;;;;;;4.00;1.97;;;;;;;27.91;24.88;99093.13;7043527;28;20240;-80
2022/07/15 08:02:42;;;;;;;5.03;2.23;;;;;;;28.23;24.21;99099.31;7033421;28;20207;-79
2022/07/15 08:06:05;;;;;;;4.27;1.93;;;;;;;28.99;23.14;99103.88;7014806;28;20642;-80
2022/07/15 08:09:27;;;;;;;2.67;2.20;;;;;;;29.81;22.93;99091.88;7022549;28;20204;-79
2022/07/15 08:12:49;;;;;;;2.63;2.40;;;;;;;30.75;22.05;99087.25;7051462;28;20212;-80
2022/07/15 08:16:10;;;;;;;3.10;1.87;;;;;;;30.62;22.45;99095.75;7050239;28;20231;-80
2022/07/15 08:19:32;;;;;;;3.40;2.00;;;;;;;30.77;20.93;99098.88;7041926;28;20210;-80
2022/07/15 08:22:58;;;;;;;3.20;1.73;;;;;;;30.81;21.73;99091.50;7040669;28;20203;-79
2022/07/15 08:26:23;;;;;;;4.67;1.90;;;;;;;31.20;20.69;99085.69;7039689;28;20229;-80
2022/07/15 08:29:45;;;;;;;3.93;2.07;;;;;;;31.49;20.91;99085.75;7039001;28;20216;-80
2022/07/15 08:33:06;;;;;;;4.50;2.10;;;;;;;32.15;20.00;99058.97;7038971;28;20228;-79
2022/07/15 08:36:28;;;;;;;2.10;1.83;;;;;;;31.77;20.20;99086.16;7039614;28;20209;-80
2022/07/15 08:39:51;;;;;;;2.37;1.87;;;;;;;32.09;20.06;99072.31;7037895;28;20216;-80
2022/07/15 08:43:12;;;;;;;5.70;2.10;;;;;;;31.55;20.53;99092.75;7037719;28;20208;-80
2022/07/15 08:46:35;;;;;;;2.90;2.07;;;;;;;32.08;20.12;99081.03;7038985;28;20218;-80
2022/07/15 08:49:57;;;;;;;2.77;1.70;;;;;;;32.10;20.84;99082.31;7037856;28;20224;-80
2022/07/15 08:53:19;;;;;;;3.03;1.80;;;;;;;32.27;20.25;99076.66;7038607;28;20239;-80
2022/07/15 08:56:45;;;;;;;4.87;2.30;;;;;;;32.56;20.08;99068.19;7039954;28;20211;-81
2022/07/15 09:00:10;;;;;;;2.43;1.90;;;;;;;31.58;20.34;99082.91;7039768;28;20693;-80
2022/07/15 09:03:31;;;;;;;2.80;2.00;;;;;;;31.82;20.85;99070.03;7038700;28;20237;-80
2022/07/15 09:06:53;;;;;;;2.13;1.60;;;;;;;33.10;19.36;99085.75;7039491;28;20180;-80
2022/07/15 09:10:15;;;;;;;3.93;1.90;;;;;;;30.39;21.24;99066.44;7039742;28;20300;-80
2022/07/15 09:13:39;;;;;;;2.43;1.80;;;;;;;29.49;22.82;99058.84;7012622;28;20239;-80
2022/07/15 09:17:20;;;;;;;6.03;2.43;;;;;;;30.07;21.50;99073.25;7038568;28;20205;-80
2022/07/15 09:20:44;;;;;;;2.10;1.73;;;;;;;30.74;21.08;99090.34;7037381;28;20200;-80
2022/07/15 09:24:17;;;;;;;3.83;1.93;;;;;;;30.46;21.75;99092.63;7015408;28;20337;-80
2022/07/15 09:27:40;;;;;;;3.40;1.80;;;;;;;30.42;21.48;99099.19;7015066;28;20271;-80
2022/07/15 09:34:59;;;;;;;6.97;2.33;;;;;;;30.56;21.69;99095.09;7020594;28;20235;-80
2022/07/15 09:38:24;;;;;;;4.43;2.10;;;;;;;30.17;22.93;99086.91;7021229;28;20464;-80
2022/07/15 09:41:47;;;;;;;5.27;2.27;;;;;;;31.76;21.03;99088.09;7037793;28;20188;-79
2022/07/15 09:45:20;;;;;;;2.10;1.90;;;;;;;31.78;21.23;99085.78;7036487;28;20280;-80
2022/07/15 09:48:44;;;;;;;2.30;2.00;;;;;;;32.65;19.86;99088.47;7037457;28;20207;-80
2022/07/15 09:52:07;;;;;;;3.93;1.97;;;;;;;33.26;19.53;99090.31;7031433;28;20426;-80
2022/07/15 09:55:29;;;;;;;1.97;1.77;;;;;;;33.27;19.55;99088.38;7009259;28;20591;-80
2022/07/15 09:58:52;;;;;;;2.87;1.83;;;;;;;32.79;20.01;99085.41;7005874;28;20686;-80
2022/07/15 10:02:14;;;;;;;4.33;2.07;;;;;;;32.86;19.97;99092.09;7032875;28;20208;-80
2022/07/15 10:05:38;;;;;;;5.90;2.50;;;;;;;32.62;20.84;99089.16;7022377;28;20247;-80
2022/07/15 10:09:00;;;;;;;6.40;2.07;;;;;;;32.52;20.93;99089.56;7019100;28;20197;-80
2022/07/15 10:12:24;;;;;;;4.60;2.10;;;;;;;33.07;20.50;99078.88;7031941;28;20205;-80
2022/07/15 10:15:53;;;;;;;2.37;1.93;;;;;;;30.80;22.45;99098.22;7026817;28;20219;-81
2022/07/15 10:19:20;;;;;;;3.63;2.10;;;;;;;32.04;21.37;99105.16;7013900;28;20281;-81
2022/07/15 10:22:56;;;;;;;3.10;2.03;;;;;;;32.98;20.24;99083.75;7008807;28;20768;-80
2022/07/15 10:26:31;;;;;;;3.20;2.00;;;;;;;32.36;20.42;99088.56;7006313;28;20218;-80
2022/07/15 10:29:53;;;;;;;3.20;1.97;;;;;;;30.71;22.24;99089.03;7006382;28;20197;-80
2022/07/15 10:33:18;;;;;;;3.83;2.13;;;;;;;31.69;21.21;99076.63;7013511;28;20240;-82
2022/07/15 10:36:40;;;;;;;2.60;2.03;;;;;;;31.69;20.96;99054.34;7008501;28;20282;-81
2022/07/15 10:40:07;;;;;;;3.47;2.17;;;;;;;33.49;20.16;99068.38;7007097;28;20334;-80
2022/07/15 10:43:48;;;;;;;2.60;2.27;;;;;;;31.21;21.10;99070.63;7005653;28;20228;-80
2022/07/15 10:47:20;;;;;;;3.00;2.03;;;;;;;32.90;19.86;99064.28;7006376;28;20217;-80
2022/07/15 10:50:43;;;;;;;3.30;2.00;;;;;;;33.38;19.95;99064.41;7005073;28;20714;-80
2022/07/15 10:54:07;;;;;;;3.57;2.20;;;;;;;33.13;20.53;99057.91;7018568;28;20248;-84
2022/07/15 10:57:54;;;;;;;2.73;2.10;;;;;;;31.43;21.37;99067.56;7007625;28;20282;-81
2022/07/15 11:01:27;;;;;;;4.60;2.60;;;;;;;31.81;20.83;99048.88;7014091;28;20202;-80
2022/07/15 11:04:49;;;;;;;2.63;2.30;;;;;;;31.74;21.01;99036.59;7034141;28;20242;-80
2022/07/15 11:08:49;;;;;;;21.83;17.80;;;;;;;31.31;21.83;99041.56;7032761;28;20695;-80
2022/07/15 11:12:11;;;;;;;62.00;43.00;;;;;;;32.30;21.07;99022.91;7034434;28;20218;-80
2022/07/15 11:15:34;;;;;;;14.00;10.07;;;;;;;31.71;21.02;99026.91;7034825;28;20593;-80
2022/07/15 11:18:57;;;;;;;3.63;2.50;;;;;;;32.15;21.14;99020.75;7006965;28;20205;-80
2022/07/15 11:22:20;;;;;;;3.57;2.27;;;;;;;31.28;21.58;98998.47;7027751;28;20608;-80
2022/07/15 11:25:42;;;;;;;3.60;2.30;;;;;;;31.76;20.82;99018.38;7033718;28;20316;-80
2022/07/15 11:29:03;;;;;;;3.50;2.43;;;;;;;30.85;21.91;99020.03;7033296;28;20209;-79
2022/07/15 11:32:27;;;;;;;4.07;2.17;;;;;;;30.01;23.12;99015.34;7032155;28;20294;-80
2022/07/15 11:35:51;;;;;;;5.07;2.03;;;;;;;31.03;22.16;99029.19;7025570;28;20324;-80
2022/07/15 11:39:28;;;;;;;5.23;2.43;;;;;;;30.78;22.39;99022.53;7032517;28;20196;-79
2022/07/15 11:46:30;;;;;;;2.73;2.20;;;;;;;30.51;22.95;99020.13;7034545;28;20235;-79
2022/07/15 11:49:59;;;;;;;5.23;2.23;;;;;;;31.06;22.62;99032.13;7033690;28;20259;-80
2022/07/15 11:53:21;;;;;;;4.13;2.60;;;;;;;31.26;21.48;99017.47;7028428;28;20216;-81
2022/07/15 11:56:42;;;;;;;4.60;2.33;;;;;;;31.96;21.57;99012.00;7024159;28;20202;-79
2022/07/15 12:00:05;;;;;;;2.50;2.17;;;;;;;30.12;23.28;99002.75;7008950;28;20564;-79
2022/07/15 12:03:36;;;;;;;2.60;2.00;;;;;;;31.13;22.86;99010.13;7027718;28;20232;-80
2022/07/15 12:06:59;;;;;;;4.80;2.30;;;;;;;31.43;22.06;99013.81;7010456;28;20228;-80
2022/07/15 12:10:34;;;;;;;5.73;2.30;;;;;;;31.60;22.39;98999.78;7003950;28;20343;-80
2022/07/15 12:13:57;;;;;;;3.87;2.27;;;;;;;32.35;21.04;99003.19;7003955;28;20229;-80
2022/07/15 12:17:19;;;;;;;2.87;2.33;;;;;;;31.38;22.69;98997.25;7003952;28;20717;-80
2022/07/15 12:20:41;;;;;;;6.67;2.30;;;;;;;31.51;22.23;99008.19;7004594;28;20223;-78
2022/07/15 12:24:09;;;;;;;5.23;2.17;;;;;;;31.38;22.25;99008.41;7007904;28;20312;-78
2022/07/15 12:27:34;;;;;;;2.97;2.40;;;;;;;31.79;21.75;98995.38;7008650;28;20187;-79
2022/07/15 12:30:56;;;;;;;7.67;2.63;;;;;;;32.68;21.37;98994.81;7016346;28;20223;-79
2022/07/15 12:34:18;;;;;;;6.10;2.43;;;;;;;31.00;21.95;99000.03;7038295;28;20229;-78
2022/07/15 12:37:50;;;;;;;3.53;2.10;;;;;;;31.49;22.11;99012.47;7037416;28;20218;-79
2022/07/15 12:41:26;;;;;;;4.60;2.50;;;;;;;30.89;22.44;99007.09;7038901;28;20563;-79
2022/07/15 12:45:06;;;;;;;4.13;2.20;;;;;;;32.09;21.81;98999.78;7037810;28;20274;-79
2022/07/15 12:48:27;;;;;;;3.80;2.50;;;;;;;31.82;21.34;98991.94;7036625;28;20196;-79
2022/07/15 12:51:49;;;;;;;4.53;2.70;;;;;;;31.74;21.85;98995.59;7032411;28;20211;-79
2022/07/15 12:55:16;;;;;;;3.47;2.43;;;;;;;31.10;22.96;99007.19;7008440;28;20235;-79
2022/07/15 12:58:39;;;;;;;4.90;2.60;;;;;;;31.20;22.18;99010.44;7007019;28;20221;-79
2022/07/15 13:02:04;;;;;;;4.87;2.20;;;;;;;32.45;21.32;98999.97;7027388;28;20220;-79
2022/07/15 13:05:26;;;;;;;5.03;2.27;;;;;;;32.30;21.77;98997.81;7035341;28;20224;-79
2022/07/15 13:08:47;;;;;;;5.43;2.57;;;;;;;31.65;22.44;98999.53;7034243;28;20231;-79
2022/07/15 13:12:09;;;;;;;5.13;2.77;;;;;;;31.28;23.02;98986.50;7030016;28;20204;-79
2022/07/15 13:15:33;;;;;;;3.47;2.30;;;;;;;30.62;23.31;99004.69;7026462;28;20217;-79
2022/07/15 13:18:54;;;;;;;4.27;2.60;;;;;;;31.16;22.71;98989.13;7035437;28;20217;-80
2022/07/15 13:22:16;;;;;;;4.90;2.90;;;;;;;30.31;23.44;98984.59;7032961;28;20278;-79
2022/07/15 13:25:40;;;;;;;4.83;2.60;;;;;;;31.51;22.95;98976.69;7025417;28;20228;-79
2022/07/15 13:29:03;;;;;;;2.57;2.37;;;;;;;31.19;22.71;98988.53;7026742;28;20704;-78
2022/07/15 13:32:26;;;;;;;4.33;2.40;;;;;;;30.93;22.57;98983.00;7007417;28;20369;-79
2022/07/15 13:35:47;;;;;;;6.03;3.37;;;;;;;30.57;23.14;98985.38;7006012;28;20235;-79
2022/07/15 13:39:09;;;;;;;2.90;2.30;;;;;;;31.27;22.98;98987.66;7006737;28;20199;-79
2022/07/15 13:42:31;;;;;;;3.73;2.33;;;;;;;31.58;22.56;98965.81;7006096;28;20856;-79
2022/07/15 13:45:52;;;;;;;4.27;2.50;;;;;;;31.90;21.76;98979.09;7016072;28;20233;-79
2022/07/15 13:49:15;;;;;;;3.50;2.50;;;;;;;32.02;21.90;98982.75;7034338;28;20368;-79
2022/07/15 13:52:41;;;;;;;3.37;2.50;;;;;;;31.74;21.99;98976.09;7033586;28;20260;-79
2022/07/15 13:56:02;;;;;;;2.73;2.20;;;;;;;31.83;22.25;98976.03;7031865;28;20229;-79
2022/07/15 13:59:24;;;;;;;2.40;2.03;;;;;;;31.66;21.96;98987.28;7031144;28;20209;-79
2022/07/15 14:02:46;;;;;;;4.97;2.30;;;;;;;31.55;22.59;98989.59;7030080;28;20668;-80
2022/07/15 14:06:10;;;;;;;5.53;2.90;;;;;;;30.57;22.93;98985.38;7020342;28;20293;-79
2022/07/15 14:09:33;;;;;;;2.77;1.97;;;;;;;30.26;23.23;98978.41;7034195;28;20247;-79
2022/07/15 14:12:54;;;;;;;3.67;2.20;;;;;;;30.14;23.91;98997.72;7035468;28;20205;-79
2022/07/15 14:16:16;;;;;;;3.73;2.33;;;;;;;30.15;24.10;98993.78;7035010;28;20730;-79
2022/07/15 14:19:37;;;;;;;3.30;2.40;;;;;;;29.63;24.74;98998.47;7033982;28;20212;-79
2022/07/15 14:23:00;;;;;;;3.53;2.20;;;;;;;29.40;25.07;98974.66;7035853;28;20289;-79
2022/07/15 14:26:22;;;;;;;5.97;2.70;;;;;;;29.46;24.66;98978.09;7035592;28;20232;-80
2022/07/15 14:29:44;;;;;;;3.30;2.20;;;;;;;29.49;24.54;98981.06;7033976;28;20211;-79
2022/07/15 14:33:05;;;;;;;3.17;2.30;;;;;;;29.09;24.75;98981.44;7035214;28;20212;-79
2022/07/15 14:36:27;;;;;;;6.43;2.60;;;;;;;28.89;25.33;98977.22;7035472;28;20640;-79
2022/07/15 14:39:50;;;;;;;3.53;2.30;;;;;;;29.59;24.41;98988.28;7035151;28;20285;-79
2022/07/15 14:43:12;;;;;;;3.60;2.50;;;;;;;30.15;24.01;98977.09;7035878;28;20220;-79
2022/07/15 14:46:34;;;;;;;3.23;1.93;;;;;;;30.87;23.73;98981.56;7036966;28;20742;-79
2022/07/15 14:49:55;;;;;;;4.43;2.20;;;;;;;30.77;23.64;98970.78;7036809;28;20214;-79
2022/07/15 14:53:17;;;;;;;5.37;2.17;;;;;;;30.78;23.26;98963.25;7035824;28;20210;-79
2022/07/15 14:56:40;;;;;;;3.47;2.20;;;;;;;29.77;23.75;98971.31;7036320;28;20225;-79
2022/07/15 15:00:01;;;;;;;7.77;2.50;;;;;;;29.42;24.10;98982.69;7037985;28;20298;-80
2022/07/15 15:03:23;;;;;;;3.93;2.30;;;;;;;30.16;24.03;98959.25;7037960;28;20232;-79
2022/07/15 15:06:44;;;;;;;4.27;2.27;;;;;;;30.47;23.99;98970.97;7038128;28;20631;-79
2022/07/15 15:10:07;;;;;;;3.90;2.40;;;;;;;31.17;22.64;98958.16;7037724;28;20261;-79
2022/07/15 15:13:30;;;;;;;5.90;2.20;;;;;;;30.81;23.55;98968.13;7043552;28;20218;-79
2022/07/15 15:16:51;;;;;;;4.90;2.53;;;;;;;30.95;23.29;98972.34;7049063;28;20204;-79
2022/07/15 15:20:13;;;;;;;3.53;1.93;;;;;;;30.95;23.36;98952.84;7043135;28;20206;-79
2022/07/15 15:23:34;;;;;;;6.23;2.50;;;;;;;30.98;22.56;98968.09;7037189;28;20229;-79
2022/07/15 15:26:57;;;;;;;4.30;2.30;;;;;;;30.91;22.96;98962.22;7013034;28;20940;-79
2022/07/15 15:30:20;;;;;;;3.10;2.37;;;;;;;29.91;24.00;98969.19;7008720;28;20218;-79
2022/07/15 15:33:41;;;;;;;3.47;2.00;;;;;;;30.41;23.62;98959.22;7009176;28;20708;-79
2022/07/15 15:37:03;;;;;;;4.13;2.30;;;;;;;30.74;22.86;98965.06;7007990;28;20675;-79
2022/07/15 15:40:25;;;;;;;4.67;2.40;;;;;;;30.65;23.22;98973.44;7007558;28;20257;-79
2022/07/15 15:43:46;;;;;;;4.03;2.10;;;;;;;30.54;23.11;98977.69;7007162;28;20276;-80
2022/07/15 15:47:09;;;;;;;4.73;2.50;;;;;;;30.65;23.18;98934.47;7005744;28;20230;-79
2022/07/15 15:50:31;;;;;;;6.40;2.37;;;;;;;30.69;23.33;98977.19;7007387;28;20218;-79
2022/07/15 15:53:52;;;;;;;3.97;2.47;;;;;;;29.94;23.62;98960.22;7033383;28;20242;-78
2022/07/15 15:57:14;;;;;;;4.17;2.07;;;;;;;30.30;23.60;98971.84;7029022;28;20206;-79
2022/07/15 16:00:35;;;;;;;2.53;1.90;;;;;;;30.57;23.43;98967.84;7029303;28;20214;-78
2022/07/15 16:03:59;;;;;;;4.60;2.60;;;;;;;31.01;23.18;98973.78;7018589;28;20220;-80
2022/07/15 16:07:20;;;;;;;3.67;2.30;;;;;;;30.82;23.40;98978.13;7011585;28;20316;-80
2022/07/15 16:10:42;;;;;;;5.77;2.17;;;;;;;30.41;23.28;98966.72;7035380;28;20204;-79